Alginet, Spain
Current Conditions -  °F | °C
As of 4:00 PM on Sunday 21 Dec 2014 (Local Time) from LEVC Reporting Station
Clear Clear  
Wind Chill: 17°   Ceiling: Unl
Heat Index: 17°   Visibility: 6mi
Dew Point:   Wind: 3mph
Humidity: 59%   Direction: 130°SE
Pressure: 30.42"   Gusts: NA
Location:  39.27°N, 0.47°W
Report Text: LEVC 211500Z 13003KT CAVOK 17/09 Q1030 NOSIG
Loading
Personal Weather Stations






























Interactive Weather Map New forecast layout! Learn more

10-Day Weather Forecast

Advertisements
Track Severe Weather on mobile